Date,TemperatureHighF,TemperatureAvgF,TemperatureLowF,DewpointHighF,DewpointAvgF,DewpointLowF,HumidityHigh,HumidityAvg,HumidityLow,PressureMaxIn,PressureMinIn,WindSpeedMaxMPH,WindSpeedAvgMPH,GustSpeedMaxMPH,PrecipitationSumIn
2013-1-1,40,37,28,31,26,14,75,63,50,30.03,29.85,27,6,27,0.00
2013-1-2,32,28,23,20,16,11,66,59,53,30.20,30.01,26,5,26,0.00
2013-1-3,32,28,22,21,18,16,76,67,55,30.23,30.10,17,3,17,0.00
2013-1-4,39,34,30,26,23,21,74,64,54,30.10,29.96,19,3,19,0.00
2013-1-5,43,35,28,26,24,21,85,64,50,30.30,30.02,22,4,22,0.00
2013-1-6,46,38,30,35,31,26,92,76,55,30.26,29.99,15,2,15,0.00
2013-1-7,45,38,28,33,28,23,84,68,46,30.43,30.07,20,3,20,0.00
2013-1-8,49,39,27,38,32,23,88,76,56,30.46,30.36,19,2,19,0.00
2013-1-9,49,41,29,42,35,27,94,79,59,30.42,30.13,18,3,18,0.00
2013-1-10,48,42,33,35,28,25,78,57,41,30.57,30.22,22,4,22,0.00
2013-1-11,47,40,30,46,35,26,96,84,67,30.57,30.13,10,1,10,0.26
2013-1-12,49,44,42,48,43,41,98,97,96,30.21,30.08,14,2,14,0.26
2013-1-13,49,45,40,48,44,39,100,98,97,30.20,30.05,11,3,18,0.00
2013-1-14,56,50,37,54,46,33,99,87,62,30.31,29.95,18,4,18,0.03
2013-1-15,38,37,35,34,31,28,92,79,68,30.36,30.23,15,4,15,0.11
2013-1-16,37,35,34,36,34,32,97,95,84,30.25,29.81,16,2,16,0.59
2013-1-17,43,39,35,36,31,26,97,75,57,30.12,29.92,25,4,25,0.06
2013-1-18,35,28,23,26,14,7,73,57,39,30.52,30.02,22,5,22,0.00
2013-1-19,51,41,26,37,29,16,76,63,45,30.46,29.95,29,9,29,0.00
2013-1-20,55,44,31,34,26,14,74,52,24,30.05,29.70,28,8,28,0.00
2013-1-21,33,29,23,24,17,12,81,61,48,30.13,29.84,17,3,17,0.00
2013-1-22,29,21,14,21,4,-7,76,47,34,30.21,29.83,29,9,29,0.00
2013-1-23,21,16,12,1,-2,-6,59,45,35,30.27,30.18,23,6,23,0.00
2013-1-24,24,17,8,7,2,-1,80,54,34,30.40,30.16,29,7,29,0.00
2013-1-25,26,19,13,18,8,3,88,64,41,30.43,30.09,19,2,19,0.02
2013-1-26,26,21,15,16,12,7,89,68,50,30.38,30.06,22,6,22,0.00
2013-1-27,33,24,14,17,12,7,84,61,37,30.53,30.38,20,2,20,0.00
2013-1-28,36,30,20,34,26,14,95,85,65,30.51,30.03,15,3,15,0.19
2013-1-29,45,40,36,40,37,34,100,92,83,30.19,30.02,12,2,12,0.05
2013-1-30,55,51,40,55,50,39,98,97,95,30.13,29.45,36,10,36,0.02
2013-1-31,58,46,30,57,33,12,97,64,38,29.79,29.09,45,11,45,0.50
2013-2-1,32,29,25,15,11,6,59,48,35,30.24,29.78,28,7,28,0.00
2013-2-2,30,26,20,22,12,8,87,58,41,30.33,30.09,20,4,20,0.01
2013-2-3,30,27,24,23,21,17,92,79,60,30.10,29.81,12,1,12,0.00
2013-2-4,32,28,24,23,14,10,82,57,42,30.01,29.82,27,5,27,0.00
2013-2-5,31,29,27,29,26,15,93,87,59,30.02,29.93,14,2,14,0.01
2013-2-6,39,34,30,31,24,11,95,70,44,30.38,29.94,24,5,24,0.00
2013-2-7,31,28,25,24,13,6,76,53,38,30.54,30.37,17,3,17,0.00
2013-2-8,35,32,26,33,30,24,97,90,75,30.38,29.61,29,6,29,0.43
2013-2-9,29,26,22,26,20,10,96,80,54,30.34,29.72,32,6,32,0.40
2013-2-10,37,25,18,22,12,6,92,59,32,30.51,30.34,21,2,21,0.32
2013-2-11,47,40,25,46,38,22,98,93,82,30.38,29.69,20,3,20,0.55
2013-2-12,45,40,30,41,31,26,97,70,53,29.99,29.74,22,4,22,0.08
2013-2-13,43,35,26,31,27,22,90,73,54,29.98,29.72,14,1,14,0.00
2013-2-14,45,38,32,36,30,24,94,77,45,30.05,29.73,14,4,14,0.00
2013-2-15,50,41,34,40,37,32,94,84,68,30.06,29.96,15,4,15,0.00
2013-2-16,42,35,28,37,28,20,93,78,57,29.99,29.73,24,7,24,0.01
2013-2-17,31,26,18,25,9,3,88,50,33,29.98,29.64,38,14,38,0.00
2013-2-18,34,26,18,18,9,4,60,50,36,30.27,29.97,35,8,35,0.00
2013-2-19,47,40,31,44,34,18,95,80,57,30.26,29.69,28,6,28,0.29
2013-2-20,40,32,26,31,18,12,70,56,45,29.99,29.72,27,8,27,0.00
2013-2-21,33,28,24,18,15,13,68,57,48,30.32,29.97,31,10,31,0.00
2013-2-22,37,32,26,31,24,18,81,73,64,30.44,30.29,22,3,22,0.00
2013-2-23,43,38,36,41,36,31,96,92,81,30.32,29.84,17,3,17,0.30
2013-2-24,44,38,34,39,34,28,97,86,61,29.98,29.76,24,8,24,0.00
2013-2-25,46,39,32,32,28,25,79,66,50,30.27,29.98,16,4,16,0.00
2013-2-26,43,37,32,36,32,28,94,83,68,30.35,29.97,20,3,20,0.14
2013-2-27,48,44,37,48,42,35,97,93,82,29.98,29.53,37,6,37,1.28
2013-2-28,48,43,39,42,38,33,92,81,68,29.66,29.56,15,2,15,0.01
2013-3-1,45,40,35,37,32,29,92,74,57,29.79,29.62,19,6,19,0.01
2013-3-2,40,36,31,30,27,26,92,69,58,29.79,29.71,18,6,18,0.01
2013-3-3,39,33,30,30,24,21,92,68,52,29.76,29.68,20,7,20,0.00
2013-3-4,41,34,29,24,22,19,72,62,49,29.91,29.75,28,9,29,0.00
2013-3-5,47,39,31,32,27,22,73,62,46,30.07,29.91,21,5,21,0.00
2013-3-6,41,39,35,37,34,31,91,81,72,30.03,29.88,34,10,40,0.05
2013-3-7,36,34,33,34,32,31,96,94,89,30.07,29.93,30,10,30,0.33
2013-3-8,41,34,31,35,32,28,97,92,62,30.19,30.00,26,8,26,0.49
2013-3-9,53,41,32,33,27,22,88,60,31,30.36,30.18,22,6,22,0.01
2013-3-10,48,37,27,39,32,25,94,84,66,30.43,30.35,13,2,13,0.00
2013-3-11,53,45,38,48,42,36,94,88,75,30.37,30.14,19,4,19,0.00
2013-3-12,54,51,45,52,49,40,97,92,82,30.15,29.72,34,10,34,0.48
2013-3-13,50,43,35,41,32,23,93,69,36,29.91,29.80,23,4,23,0.32
2013-3-14,39,34,29,31,16,9,73,48,30,29.97,29.87,36,10,36,0.24
2013-3-15,45,37,30,32,20,9,63,49,34,29.99,29.75,27,6,27,0.00
2013-3-16,41,35,32,31,27,21,93,73,56,29.93,29.80,18,2,18,0.03
2013-3-17,37,33,30,31,22,13,93,65,42,30.34,29.93,20,3,20,0.03
2013-3-18,38,32,28,32,20,13,95,62,45,30.46,30.09,21,4,24,0.04
2013-3-19,40,37,34,38,35,32,96,93,85,30.09,29.70,20,6,20,0.93
2013-3-20,45,38,32,32,23,19,84,55,36,29.91,29.82,24,4,24,0.01
2013-3-21,38,33,29,29,27,22,94,79,56,29.88,29.67,16,4,16,0.05
2013-3-22,42,35,28,23,21,16,70,56,43,29.90,29.74,24,5,24,0.00
2013-3-23,45,39,32,24,22,20,70,52,38,29.94,29.81,33,7,33,0.00
2013-3-24,46,38,29,28,24,20,73,56,42,29.97,29.75,19,3,19,0.00
2013-3-25,40,37,34,35,32,28,93,80,69,29.77,29.48,29,5,29,0.21
2013-3-26,51,42,35,34,31,27,84,66,39,29.88,29.60,24,3,24,0.01
2013-3-27,52,43,32,31,28,24,85,58,35,29.98,29.87,22,4,22,0.00
2013-3-28,50,43,36,35,32,30,81,66,52,30.12,29.97,21,5,21,0.00
2013-3-29,55,47,40,34,31,27,69,54,35,30.16,30.06,17,5,19,0.00
2013-3-30,57,46,36,36,30,21,81,57,25,30.18,30.09,19,4,19,0.00
2013-3-31,55,44,32,44,36,30,94,75,47,30.17,29.68,19,4,24,0.14
2013-4-1,60,48,38,50,41,14,96,79,35,29.92,29.64,29,5,29,0.11
2013-4-2,44,38,31,20,16,11,58,41,28,30.10,29.92,30,7,30,0.00
2013-4-3,46,38,32,17,15,12,52,38,27,30.31,30.09,20,8,28,0.00
2013-4-4,49,40,29,34,23,16,76,53,33,30.42,30.13,21,5,21,0.00
2013-4-5,61,49,41,37,29,18,86,52,22,30.13,29.72,23,6,23,0.00
2013-4-6,50,41,36,31,17,4,74,41,16,30.36,29.99,25,7,26,0.00
2013-4-7,53,46,37,45,38,31,90,76,60,30.35,30.05,33,9,33,0.00
2013-4-8,70,55,42,48,45,40,94,71,36,30.11,30.02,16,4,17,0.00
2013-4-9,81,65,49,55,47,40,94,58,26,30.05,29.93,26,4,26,0.00
2013-4-10,72,58,51,56,50,46,94,74,53,30.04,29.83,29,4,29,0.10
2013-4-11,60,53,46,55,48,38,97,85,64,30.09,29.80,15,3,15,0.23
2013-4-12,47,43,40,41,39,36,96,86,67,30.09,29.75,29,8,29,0.21
2013-4-13,57,46,39,41,39,35,96,76,46,30.01,29.77,20,5,22,0.20
2013-4-14,55,50,45,45,36,28,92,60,35,30.26,30.00,31,5,31,0.14
2013-4-15,56,47,39,40,35,31,86,62,44,30.43,30.26,17,2,17,0.06
2013-4-16,61,53,42,54,47,38,92,82,70,30.43,30.17,28,7,28,0.01
2013-4-17,67,59,50,54,42,33,92,59,28,30.33,30.14,18,4,18,0.02
2013-4-18,59,52,42,55,44,38,94,75,47,30.40,30.15,25,4,25,0.00
2013-4-19,67,59,55,62,58,54,98,95,82,30.15,29.70,36,10,36,0.00
2013-4-20,59,54,48,59,40,28,98,64,33,30.30,29.71,23,5,23,0.11
2013-4-21,53,44,37,32,25,20,73,49,28,30.68,30.30,24,6,24,0.04
2013-4-22,55,45,33,38,34,29,92,66,39,30.70,30.54,22,4,22,0.02
2013-4-23,49,44,40,42,38,34,92,82,73,30.55,30.13,21,7,21,0.00
2013-4-24,65,51,42,50,45,39,96,80,52,30.13,29.91,28,7,28,0.00
2013-4-25,64,55,48,52,35,22,96,54,21,30.31,29.91,26,6,26,0.01
2013-4-26,65,54,40,44,36,28,91,55,25,30.45,30.30,22,3,22,0.00
2013-4-27,67,54,42,42,33,18,80,49,16,30.46,30.33,16,3,16,0.00
2013-4-28,67,54,42,48,39,30,94,63,27,30.36,30.25,21,4,21,0.00
2013-4-29,60,55,53,48,46,41,83,70,56,30.29,30.23,17,4,17,0.00
2013-4-30,67,56,45,48,36,22,84,53,21,30.37,30.25,13,2,14,0.00
2013-5-1,67,53,39,48,41,34,92,66,46,30.52,30.36,15,2,15,0.00
2013-5-2,70,56,40,51,43,38,95,66,39,30.51,30.36,17,2,17,0.00
2013-5-3,64,54,47,47,42,38,88,65,41,30.50,30.40,18,4,18,0.00
2013-5-4,67,52,42,48,43,39,95,72,42,30.41,30.29,19,3,19,0.00
2013-5-5,63,50,40,46,42,37,91,74,45,30.34,30.26,18,3,18,0.00
2013-5-6,69,55,44,56,48,42,94,77,56,30.31,30.19,14,2,14,0.00
2013-5-7,74,59,46,60,54,43,95,82,61,30.20,30.13,15,1,15,0.00
2013-5-8,65,59,54,63,57,53,96,94,88,30.15,30.03,18,2,18,0.14
2013-5-9,64,58,54,60,56,53,97,93,79,30.06,29.91,13,1,13,0.09
2013-5-10,77,65,53,62,56,52,97,77,50,30.02,29.93,19,3,19,0.06
2013-5-11,66,61,59,63,59,56,97,92,84,29.93,29.73,27,6,27,0.02
2013-5-12,71,61,52,60,46,28,97,64,27,29.94,29.67,26,3,26,0.02
2013-5-13,57,51,44,36,31,25,69,48,33,30.12,29.94,22,4,22,0.01
2013-5-14,60,51,42,42,34,25,77,55,26,30.15,30.05,18,4,18,0.00
2013-5-15,63,56,46,56,49,41,89,77,49,30.11,29.72,26,6,26,0.01
2013-5-16,78,66,57,57,52,44,93,65,35,29.84,29.73,19,3,19,0.00
2013-5-17,72,64,53,53,44,40,75,49,32,30.24,29.84,20,4,20,0.00
2013-5-18,70,58,48,55,50,44,93,75,45,30.34,30.23,17,2,17,0.00
2013-5-19,58,57,55,58,55,51,97,94,85,30.37,30.22,17,2,17,0.00
2013-5-20,77,66,58,69,63,57,98,90,72,30.22,30.00,18,3,18,0.01
2013-5-21,83,72,64,72,66,63,97,85,66,30.01,29.88,20,4,20,0.00
2013-5-22,80,67,57,71,63,56,97,89,71,29.97,29.88,11,4,13,0.00
2013-5-23,75,67,64,69,64,62,97,92,80,29.94,29.81,30,9,30,0.00
2013-5-24,67,58,47,65,56,44,100,92,79,29.94,29.71,30,6,30,0.01
2013-5-25,50,47,44,46,44,41,95,89,74,30.00,29.88,30,9,30,0.00
2013-5-26,65,55,47,44,41,38,86,62,38,30.23,29.95,29,6,29,0.00
2013-5-27,73,59,44,50,42,34,86,58,28,30.27,30.15,21,2,21,0.00
2013-5-28,72,59,49,57,52,46,96,80,40,30.25,30.17,15,2,15,0.00
2013-5-29,79,66,57,69,62,56,97,87,69,30.18,30.03,14,2,14,0.00
2013-5-30,92,78,68,70,66,63,90,68,41,30.14,30.08,19,3,19,0.00
2013-5-31,93,77,67,73,66,63,92,70,39,30.14,30.02,13,3,23,0.00
2013-6-1,86,76,68,70,67,64,89,75,58,30.05,29.94,22,6,22,0.00
2013-6-2,81,71,64,69,65,62,94,82,65,29.96,29.82,26,8,26,0.00
2013-6-3,75,69,66,70,66,57,97,91,65,29.88,29.82,17,2,17,0.00
2013-6-4,75,65,57,57,48,44,77,56,34,30.13,29.88,20,4,20,0.00
2013-6-5,74,64,52,54,49,44,89,60,39,30.23,30.13,17,2,17,0.00
2013-6-6,72,64,56,62,56,49,96,78,47,30.18,30.05,17,2,17,0.00
2013-6-7,62,61,58,62,59,57,98,95,85,30.06,29.67,20,2,21,0.00
2013-6-8,78,66,55,67,61,55,98,86,68,30.07,29.59,18,3,18,0.00
2013-6-9,78,69,59,64,60,56,98,75,49,30.20,30.06,14,2,14,0.00
2013-6-10,73,65,62,67,63,61,98,93,77,30.19,29.88,18,1,18,0.00
2013-6-11,79,72,66,71,67,59,98,85,66,29.89,29.62,21,4,21,0.00
2013-6-12,75,69,60,59,56,53,86,63,49,29.88,29.71,25,6,25,0.00
2013-6-13,65,61,56,61,58,54,98,90,80,29.86,29.51,27,2,27,0.00
2013-6-14,72,60,53,59,55,52,96,83,57,29.89,29.53,30,5,30,0.00
2013-6-15,80,70,60,60,55,46,89,64,36,30.02,29.89,15,2,15,0.00
2013-6-16,80,71,58,68,61,54,90,72,43,30.01,29.78,18,3,18,0.00
2013-6-17,86,75,66,69,66,62,94,74,48,29.94,29.85,23,3,23,0.00
2013-6-18,84,71,63,71,65,61,96,85,55,29.93,29.84,14,1,14,0.00
2013-6-19,76,67,58,62,54,41,95,68,30,30.19,29.90,19,3,19,0.00
2013-6-20,78,68,56,59,56,52,92,68,45,30.30,30.19,18,3,18,0.00
2013-6-21,82,70,61,61,57,54,87,65,44,30.33,30.27,19,4,19,0.00
2013-6-22,84,71,61,65,60,56,90,69,41,30.29,30.17,17,3,17,0.00
2013-6-23,86,75,66,72,66,59,93,75,57,30.21,30.09,23,5,23,0.00
2013-6-24,93,80,72,75,70,64,96,75,49,30.10,29.96,18,2,20,0.00
2013-6-25,93,81,70,74,69,65,85,67,47,30.02,29.81,20,2,20,0.00
2013-6-26,87,80,74,71,69,67,86,69,54,29.85,29.77,13,2,13,0.00
2013-6-27,85,76,71,74,71,69,95,84,67,29.85,29.62,22,2,22,0.00
2013-6-28,84,76,72,73,71,70,95,85,68,29.62,29.51,23,6,23,0.00
2013-6-29,83,74,69,72,69,67,94,85,64,29.74,29.51,19,4,19,0.00
2013-6-30,83,73,69,75,71,67,97,92,75,29.95,29.73,18,4,18,0.00
2013-7-1,80,74,72,75,72,71,97,95,85,30.10,29.93,22,6,22,0.00
2013-7-2,80,74,72,75,72,70,96,93,84,30.22,30.09,21,6,21,0.00
2013-7-3,84,75,70,76,72,69,96,90,75,30.27,30.21,18,4,18,0.00
2013-7-4,87,79,73,78,74,71,97,85,70,30.28,30.18,19,4,19,0.00
2013-7-5,90,81,73,78,73,71,95,79,62,30.23,30.11,19,4,19,0.00
2013-7-6,94,84,75,76,73,70,91,72,47,30.16,30.03,13,2,16,0.00
2013-7-7,92,84,77,76,74,73,86,73,55,30.07,29.94,13,3,16,0.00
2013-7-8,90,81,73,74,70,66,83,69,51,30.05,29.98,16,2,17,0.00
2013-7-9,89,80,72,74,71,67,89,76,57,30.09,30.02,16,2,16,0.00
2013-7-10,88,79,74,77,73,70,91,82,67,30.05,29.83,20,4,20,0.00
2013-7-11,84,78,73,75,72,67,93,84,61,29.94,29.83,14,1,14,0.00
2013-7-12,76,72,68,70,67,64,96,85,78,30.14,29.94,19,3,19,0.00
2013-7-13,81,74,68,77,72,67,98,95,86,30.31,30.14,11,1,11,0.00
2013-7-14,91,80,73,77,74,72,97,83,59,30.35,30.25,14,2,14,0.00
2013-7-15,94,84,77,76,74,72,89,73,53,30.26,30.15,13,1,13,0.00
2013-7-16,93,84,75,72,69,66,89,64,43,30.21,30.14,15,2,15,0.00
2013-7-17,96,83,73,75,70,63,89,67,37,30.21,30.09,13,2,13,0.00
2013-7-18,98,87,77,77,74,70,84,67,42,30.09,29.97,11,1,11,0.00
2013-7-19,96,87,81,80,77,76,87,73,57,29.99,29.82,23,4,23,0.00
2013-7-20,94,85,79,76,73,67,88,68,47,29.86,29.73,21,3,21,0.00
2013-7-21,87,80,74,72,68,62,90,69,48,29.99,29.85,14,1,14,0.00
2013-7-22,84,77,72,76,73,70,95,89,71,29.99,29.84,14,1,14,0.00
2013-7-23,85,78,72,76,74,70,97,88,72,29.84,29.57,17,3,17,0.00
2013-7-24,83,76,70,73,69,58,97,80,63,29.95,29.63,15,2,15,0.00
2013-7-25,70,64,62,61,58,53,93,81,67,30.09,29.95,18,4,18,0.00
2013-7-26,80,69,62,66,63,60,94,82,56,30.08,30.00,14,2,14,0.00
2013-7-27,82,73,66,69,66,61,95,79,51,30.09,30.00,17,4,17,0.00
2013-7-28,80,72,64,71,67,63,97,85,63,30.03,29.96,15,2,15,0.00
2013-7-29,86,77,70,72,67,56,96,73,45,30.11,29.96,15,2,16,0.00
2013-7-30,80,72,61,61,59,56,92,64,45,30.18,30.11,14,2,14,0.00
2013-7-31,83,72,62,65,61,56,93,70,41,30.18,30.08,15,2,15,0.00
2013-8-1,77,70,67,68,66,64,96,88,73,30.08,29.87,18,3,18,0.00
2013-8-2,85,74,68,68,66,59,96,77,46,29.94,29.81,17,2,17,0.00
2013-8-3,80,72,68,68,65,62,88,78,59,29.94,29.86,16,1,16,0.00
2013-8-4,80,71,62,65,60,55,94,69,43,29.98,29.86,21,2,21,0.00
2013-8-5,76,68,62,59,53,47,81,60,37,30.07,29.97,17,3,17,0.00
2013-8-6,80,69,58,65,59,54,95,72,44,30.17,30.06,17,2,17,0.00
2013-8-7,78,70,60,68,63,57,93,78,59,30.19,30.11,15,3,15,0.00
2013-8-8,80,73,68,74,70,66,95,90,81,30.11,30.05,18,6,18,0.00
2013-8-9,83,76,74,76,74,71,96,91,79,30.07,29.83,25,6,25,0.00
2013-8-10,84,76,68,73,65,60,94,71,49,30.07,29.87,19,2,19,0.00
2013-8-11,81,71,59,64,58,51,89,65,39,30.14,30.06,12,1,12,0.00
2013-8-12,80,73,69,70,68,64,95,85,67,30.07,29.96,8,0,8,0.00
2013-8-13,74,71,67,72,69,65,97,94,84,29.97,29.73,10,1,10,0.00
2013-8-14,74,68,61,68,56,50,96,67,49,30.06,29.75,21,3,23,0.00
2013-8-15,78,67,55,59,54,45,95,66,35,30.17,30.06,15,1,15,0.00
2013-8-16,79,69,56,64,56,52,94,68,42,30.24,30.15,13,1,13,0.00
2013-8-17,83,70,58,63,58,52,96,69,35,30.31,30.24,11,1,11,0.00
2013-8-18,78,68,62,65,61,57,94,77,52,30.29,30.16,11,0,11,0.00
2013-8-19,80,71,61,66,62,57,88,74,53,30.16,30.05,12,1,12,0.00
2013-8-20,66,65,64,64,62,62,95,90,86,30.12,30.07,2,0,3,0.00
2013-8-21,89,77,67,70,66,57,96,72,36,30.20,30.08,11,2,14,0.00
2013-8-22,84,74,71,74,71,68,94,89,69,30.10,29.89,14,2,14,0.00
2013-8-23,80,74,65,70,63,57,95,71,46,30.13,29.89,18,3,18,0.00
2013-8-24,79,69,60,61,56,48,89,66,35,30.38,30.13,17,3,17,0.00
2013-8-25,84,70,56,65,56,47,96,66,30,30.42,30.26,17,2,17,0.00
2013-8-26,84,74,68,70,63,57,92,68,49,30.26,29.94,16,3,16,0.01
2013-8-27,83,75,70,72,69,68,95,83,62,29.94,29.83,20,3,20,0.00
2013-8-28,87,76,67,72,69,65,96,81,55,29.93,29.87,11,1,11,0.00
2013-8-29,78,72,67,69,66,63,95,84,65,30.07,29.91,18,2,18,0.00
2013-8-30,82,73,66,71,67,63,91,83,66,30.07,29.89,16,3,16,0.00
2013-8-31,84,76,71,74,71,68,93,85,71,29.91,29.83,19,6,19,0.00
2013-9-1,84,76,72,74,73,71,96,89,72,29.90,29.84,13,5,14,0.00
2013-9-2,79,75,71,76,73,70,97,94,88,29.85,29.74,12,2,12,0.00
2013-9-3,80,73,68,74,67,59,98,82,57,29.91,29.74,14,2,14,0.00
2013-9-4,82,72,62,62,58,49,89,65,36,30.01,29.90,14,1,14,0.00
2013-9-5,76,70,62,62,55,44,86,62,37,30.16,29.94,18,3,18,0.00
2013-9-6,70,62,53,50,47,42,85,58,38,30.28,30.16,16,2,16,0.00
2013-9-7,79,65,52,61,52,43,90,65,31,30.16,29.93,16,2,16,0.00
2013-9-8,81,71,63,65,58,48,85,64,42,30.10,29.83,19,3,19,0.00
2013-9-9,72,63,49,59,50,45,90,64,40,30.27,30.10,14,2,14,0.00
2013-9-10,80,72,64,72,68,59,92,85,77,30.20,30.08,23,5,23,0.03
2013-9-11,92,80,73,77,73,70,94,79,58,30.14,30.02,21,5,21,0.00
2013-9-12,85,75,69,74,71,67,95,86,68,30.02,29.72,22,6,22,0.38
2013-9-13,75,69,61,68,63,53,97,83,57,29.85,29.65,22,3,22,0.06
2013-9-14,66,60,54,54,50,48,83,71,57,30.15,29.85,18,4,18,0.00
2013-9-15,71,62,50,58,49,40,89,65,34,30.23,30.12,11,1,11,0.00
2013-9-16,71,64,59,60,55,48,92,75,54,30.26,30.07,22,3,22,0.02
2013-9-17,64,55,46,47,41,38,86,61,43,30.45,30.26,23,4,23,0.00
2013-9-18,72,58,44,53,47,41,95,70,37,30.39,30.22,15,1,15,0.00
2013-9-19,77,63,49,58,52,44,94,70,31,30.23,30.10,15,2,15,0.00
2013-9-20,79,66,55,61,57,53,95,77,46,30.12,30.04,15,2,15,0.00
2013-9-21,76,66,52,68,62,50,97,88,74,30.06,29.72,25,5,25,0.00
2013-9-22,70,64,56,67,55,43,96,74,50,29.93,29.67,25,4,25,0.87
2013-9-23,64,57,51,47,44,40,85,63,48,30.08,29.93,14,4,20,0.00
2013-9-24,70,57,48,51,46,42,89,67,43,30.08,29.89,19,2,19,0.00
2013-9-25,72,59,48,52,49,46,94,72,42,29.98,29.90,12,1,12,0.00
2013-9-26,69,60,52,58,54,49,95,82,58,30.13,29.96,13,1,13,0.00
2013-9-27,65,59,50,58,52,48,96,81,65,30.30,30.13,17,1,17,0.00
2013-9-28,72,62,51,57,53,50,95,75,51,30.35,30.27,14,1,14,0.00
2013-9-29,70,58,50,58,50,42,96,76,37,30.27,30.12,13,1,13,0.00
2013-9-30,72,59,48,58,52,46,97,80,46,30.12,30.00,11,1,11,0.00
2013-10-1,79,66,55,59,56,52,93,72,42,30.02,29.92,13,1,13,0.00
2013-10-2,82,69,58,64,60,55,94,74,50,30.04,29.93,16,1,16,0.00
2013-10-3,77,66,55,61,55,47,96,70,37,30.15,30.04,9,1,9,0.00
2013-10-4,84,70,60,68,63,57,94,80,55,30.10,30.00,15,1,15,0.00
2013-10-5,75,67,64,66,63,62,95,88,70,30.13,30.05,9,2,10,0.00
2013-10-6,67,65,64,67,64,62,98,97,94,30.15,30.08,11,0,11,0.01
2013-10-7,75,69,61,70,66,55,98,91,79,30.08,29.84,33,6,33,0.10
2013-10-8,66,60,55,55,46,40,79,62,40,30.35,30.00,23,3,23,0.00
2013-10-9,63,58,55,51,48,40,80,70,54,30.43,30.33,20,3,20,0.00
2013-10-10,63,58,55,58,54,50,93,85,79,30.33,30.12,14,5,21,0.03
2013-10-11,68,62,59,61,58,53,92,84,70,30.13,30.05,18,3,19,0.00
2013-10-12,71,63,58,57,50,38,82,64,30,30.33,30.11,23,5,23,0.01
2013-10-13,63,58,51,54,51,47,87,80,66,30.42,30.32,18,3,18,0.00
2013-10-14,66,53,42,53,47,40,96,82,60,30.41,30.29,12,1,12,0.00
2013-10-15,72,56,46,57,49,44,97,80,48,30.31,30.16,9,0,11,0.00
2013-10-16,67,59,48,59,56,46,95,87,72,30.16,29.96,9,0,9,0.00
2013-10-17,73,64,60,63,61,59,95,88,69,29.96,29.75,16,2,16,0.00
2013-10-18,68,61,51,63,51,45,95,71,46,30.01,29.70,20,3,20,0.05
2013-10-19,65,55,44,57,47,42,94,78,47,30.04,29.78,15,1,15,0.01
2013-10-20,62,55,45,57,43,38,92,66,41,30.10,29.76,18,3,18,0.00
2013-10-21,66,54,42,49,42,36,91,66,34,30.19,30.03,16,1,16,0.00
2013-10-22,70,58,48,52,48,44,93,71,46,30.03,29.77,18,2,18,0.00
2013-10-23,52,48,41,46,39,35,91,71,54,29.85,29.65,16,1,16,0.00
2013-10-24,55,47,40,39,33,28,85,61,37,30.03,29.77,16,2,16,0.00
2013-10-25,53,45,39,36,33,30,80,62,45,30.26,30.02,21,3,21,0.00
2013-10-26,55,46,34,39,34,29,92,64,40,30.25,29.95,19,4,24,0.00
2013-10-27,58,49,40,41,36,32,81,60,40,30.15,29.89,14,2,17,0.00
2013-10-28,61,48,36,39,35,32,90,65,37,30.36,30.15,18,1,18,0.00
2013-10-29,53,47,38,39,35,32,84,64,47,30.45,30.35,15,1,15,0.00
2013-10-30,61,50,39,52,44,34,95,80,65,30.40,30.22,13,0,13,0.00
2013-10-31,65,57,44,61,54,42,97,90,79,30.27,29.87,29,5,29,0.03
2013-11-1,66,63,59,63,60,57,95,88,72,29.87,29.59,30,7,30,0.08
2013-11-2,67,59,51,58,49,42,94,71,43,29.80,29.65,11,0,11,0.00
2013-11-3,55,46,38,44,36,21,85,67,51,30.48,29.80,24,6,24,0.00
2013-11-4,45,38,32,26,23,19,76,56,43,30.71,30.48,23,3,23,0.00
2013-11-5,55,44,32,41,35,26,92,74,53,30.71,30.55,9,0,9,0.00
2013-11-6,61,51,38,56,46,36,95,83,52,30.56,30.11,18,3,18,0.00
2013-11-7,63,56,44,60,52,30,96,87,57,30.11,29.77,20,5,20,0.18
2013-11-8,49,44,39,35,30,26,78,59,44,30.24,29.94,28,5,28,0.00
2013-11-9,49,44,36,38,30,26,76,59,42,30.33,30.06,17,1,17,0.00
2013-11-10,61,50,44,40,36,30,74,59,35,30.07,29.82,26,4,26,0.01
2013-11-11,53,48,42,35,31,28,57,50,40,30.22,30.00,26,4,26,0.00
2013-11-12,51,38,32,39,29,20,96,70,54,30.31,29.95,25,6,25,0.22
2013-11-13,38,32,28,22,18,13,68,56,37,30.39,30.30,15,4,19,0.00
2013-11-14,53,42,32,25,21,18,65,45,25,30.32,30.18,16,2,16,0.00
2013-11-15,57,47,41,41,33,25,88,60,36,30.29,30.20,12,2,12,0.00
2013-11-16,60,48,40,48,42,32,92,78,52,30.37,30.26,10,1,13,0.03
2013-11-17,61,54,40,60,53,38,100,96,92,30.33,29.85,15,2,15,0.02
2013-11-18,65,59,51,60,45,29,98,63,34,29.85,29.64,28,4,28,0.31
2013-11-19,51,44,36,32,28,24,63,53,44,30.37,29.79,30,8,30,0.00
2013-11-20,43,34,27,24,20,14,76,56,30,30.66,30.37,22,3,22,0.00
2013-11-21,50,39,25,42,32,20,89,75,57,30.67,30.44,11,1,11,0.00
2013-11-22,55,52,47,52,48,42,94,87,80,30.44,29.92,12,1,12,0.10
2013-11-23,53,43,31,50,29,10,90,59,41,30.05,29.91,28,6,28,0.00
2013-11-24,31,26,23,14,6,-3,53,42,24,30.39,30.00,34,12,34,0.00
2013-11-25,36,29,23,19,14,8,67,54,38,30.51,30.38,20,4,20,0.00
2013-11-26,52,38,34,51,28,18,97,68,46,30.39,29.86,18,1,18,0.34
2013-11-27,62,50,36,61,48,24,97,93,64,29.86,29.32,42,8,42,1.80
2013-11-28,35,31,26,24,17,13,71,56,42,30.50,29.72,25,6,32,0.00
2013-11-29,39,32,29,23,21,18,75,63,48,30.76,30.50,19,2,19,0.00
2013-11-30,37,32,25,29,21,16,78,67,47,30.79,30.40,11,1,11,0.00
2013-12-1,49,43,35,43,38,29,92,84,74,30.40,30.03,9,1,9,0.00
2013-12-2,48,40,34,42,37,31,94,88,80,30.04,29.92,7,0,7,0.00
2013-12-3,52,41,34,40,35,31,96,82,55,30.04,29.90,9,1,9,0.00
2013-12-4,53,42,32,43,38,30,94,83,61,30.18,30.03,9,0,9,0.00
2013-12-5,57,54,46,56,53,43,97,95,91,30.18,29.98,17,3,17,0.07
2013-12-6,57,47,37,56,45,35,98,95,86,30.17,29.91,22,4,22,0.54
2013-12-7,40,37,33,36,30,21,95,78,61,30.54,30.10,21,4,21,0.21
2013-12-8,33,31,29,30,23,20,93,72,60,30.65,30.44,14,2,14,0.03
2013-12-9,41,37,32,40,36,30,97,96,93,30.45,29.97,15,2,15,0.17
2013-12-10,37,33,28,35,31,23,96,94,81,30.15,29.84,13,2,15,0.23
2013-12-11,34,30,26,22,19,18,80,65,54,30.35,30.15,18,2,18,0.00
2013-12-12,29,25,20,19,12,7,71,57,44,30.37,30.18,19,4,19,0.00
2013-12-13,35,29,23,21,14,8,76,55,47,30.36,30.15,25,2,25,0.00
2013-12-14,41,27,23,40,24,19,97,87,71,30.54,29.86,21,5,21,0.50
2013-12-15,43,36,31,42,32,23,98,87,65,29.86,29.49,16,4,21,0.89
2013-12-16,33,28,19,24,15,10,86,59,46,30.25,29.85,24,4,24,0.00
2013-12-17,34,26,18,33,22,14,95,89,68,30.26,29.95,15,2,15,0.14
2013-12-18,37,29,24,26,23,21,92,78,61,30.19,29.93,12,3,18,0.00
2013-12-19,45,37,23,32,27,20,87,69,48,30.20,30.05,22,2,22,0.00
2013-12-20,51,44,32,45,36,29,94,76,58,30.15,29.99,18,2,18,0.00
2013-12-21,58,52,47,53,48,45,95,88,75,30.03,29.92,19,4,19,0.00
2013-12-22,62,59,54,59,56,51,96,91,80,30.00,29.85,33,8,33,0.00
2013-12-23,58,53,41,57,52,38,100,94,88,30.16,29.89,19,2,19,0.48
2013-12-24,41,35,27,38,27,13,91,72,54,30.35,30.11,29,6,29,0.02
2013-12-25,28,24,20,16,11,9,66,58,49,30.57,30.35,25,4,25,0.00
2013-12-26,38,31,25,29,24,15,89,77,64,30.50,30.18,15,0,15,0.00
2013-12-27,41,33,25,26,23,18,86,69,41,30.38,30.28,15,1,15,0.00
2013-12-28,54,43,30,32,30,24,80,59,41,30.32,30.10,26,3,26,0.00
2013-12-29,49,44,41,48,38,30,100,81,58,30.11,29.40,21,2,21,1.23
2013-12-30,44,36,23,40,28,14,94,75,53,30.22,29.71,16,4,21,0.00
2013-12-31,32,26,20,24,16,11,76,64,51,30.31,30.09,16,2,16,0.00
2014-1-1,32,28,21,22,16,10,69,61,52,30.44,30.30,15,1,15,0.00
2014-1-2,32,28,22,27,25,20,94,88,69,30.31,29.74,24,7,25,0.04